createdAt,value
2022-12-25T00:02:18.641Z,6.87
2022-12-25T00:04:45.175Z,6.83
2022-12-25T00:07:12.296Z,6.86
2022-12-25T00:09:38.923Z,6.83
2022-12-25T00:12:05.601Z,6.74
2022-12-25T00:14:32.267Z,6.63
2022-12-25T00:16:58.810Z,6.61
2022-12-25T00:19:25.255Z,6.50
2022-12-25T00:21:51.717Z,6.47
2022-12-25T00:24:18.200Z,6.38
2022-12-25T00:26:44.737Z,6.38
2022-12-25T00:29:13.635Z,6.32
2022-12-25T00:31:40.564Z,6.25
2022-12-25T00:34:07.054Z,6.23
2022-12-25T00:36:39.489Z,6.27
2022-12-25T00:39:08.126Z,6.27
2022-12-25T00:41:55.077Z,6.14
2022-12-25T00:44:21.685Z,6.17
2022-12-25T00:46:48.322Z,6.14
2022-12-25T00:49:14.879Z,6.06
2022-12-25T00:51:41.424Z,6.14
2022-12-25T00:54:08.184Z,6.23
2022-12-25T00:56:34.948Z,6.22
2022-12-25T00:59:01.659Z,6.21
2022-12-25T01:01:28.307Z,6.28
2022-12-25T01:03:55.078Z,6.30
2022-12-25T01:06:21.572Z,6.34
2022-12-25T01:09:06.817Z,6.37
2022-12-25T01:11:33.359Z,6.40
2022-12-25T01:13:59.859Z,6.38
2022-12-25T01:16:28.246Z,6.39
2022-12-25T01:18:55.296Z,6.47
2022-12-25T01:21:22.369Z,6.50
2022-12-25T01:23:53.951Z,6.51
2022-12-25T01:26:24.232Z,6.45
2022-12-25T01:28:51.682Z,6.46
2022-12-25T01:31:20.246Z,6.46
2022-12-25T01:33:47.904Z,6.40
2022-12-25T01:36:16.675Z,6.42
2022-12-25T01:38:43.692Z,6.40
2022-12-25T01:41:11.740Z,6.37
2022-12-25T01:43:57.883Z,6.33
2022-12-25T01:46:24.583Z,6.30
2022-12-25T01:48:52.421Z,6.28
2022-12-25T01:51:28.989Z,6.18
2022-12-25T01:53:59.748Z,6.15
2022-12-25T01:56:27.591Z,6.08
2022-12-25T01:58:55.577Z,6.05
2022-12-25T02:01:22.155Z,6.02
2022-12-25T02:03:48.809Z,5.98
2022-12-25T02:06:15.507Z,5.93
2022-12-25T02:08:42.523Z,5.90
2022-12-25T02:11:29.244Z,5.84
2022-12-25T02:13:55.814Z,5.82
2022-12-25T02:16:26.161Z,5.79
2022-12-25T02:18:56.814Z,5.81
2022-12-25T02:21:35.075Z,5.79
2022-12-25T02:24:35.862Z,5.78
2022-12-25T02:27:28.579Z,5.69
2022-12-25T02:30:07.613Z,5.76
2022-12-25T02:32:37.095Z,5.77
2022-12-25T02:35:18.412Z,5.76
2022-12-25T02:38:11.463Z,5.75
2022-12-25T02:40:42.558Z,5.73
2022-12-25T02:43:35.803Z,5.76
2022-12-25T02:46:33.909Z,5.81
2022-12-25T02:49:24.027Z,5.69
2022-12-25T02:52:17.044Z,5.62
2022-12-25T02:55:09.389Z,5.54
2022-12-25T02:57:56.836Z,5.57
2022-12-25T03:00:42.104Z,5.65
2022-12-25T03:03:30.969Z,5.65
2022-12-25T03:06:19.710Z,5.66
2022-12-25T03:08:52.721Z,5.69
2022-12-25T03:11:39.646Z,5.69
2022-12-25T03:14:27.460Z,5.55
2022-12-25T03:16:56.652Z,5.64
2022-12-25T03:19:47.602Z,5.64
2022-12-25T03:22:50.631Z,5.64
2022-12-25T03:25:37.349Z,5.58
2022-12-25T03:28:05.291Z,5.47
2022-12-25T03:31:05.528Z,5.39
2022-12-25T03:34:27.973Z,5.41
2022-12-25T03:37:19.420Z,5.41
2022-12-25T03:40:20.673Z,5.40
2022-12-25T03:43:13.608Z,5.44
2022-12-25T03:46:07.275Z,5.36
2022-12-25T03:48:58.856Z,5.34
2022-12-25T03:51:49.848Z,5.34
2022-12-25T03:54:39.824Z,5.37
2022-12-25T03:57:25.638Z,5.39
2022-12-25T04:00:10.724Z,5.39
2022-12-25T04:02:56.512Z,5.27
2022-12-25T04:05:41.815Z,5.44
2022-12-25T04:08:26.707Z,5.37
2022-12-25T04:11:12.496Z,5.50
2022-12-25T04:13:57.313Z,5.53
2022-12-25T04:16:42.161Z,5.56
2022-12-25T04:19:27.895Z,5.56
2022-12-25T04:22:12.848Z,5.45
2022-12-25T04:24:57.651Z,5.45
2022-12-25T04:27:42.640Z,5.47
2022-12-25T04:30:27.780Z,5.45
2022-12-25T04:33:17.707Z,5.33
2022-12-25T04:36:09.263Z,5.38
2022-12-25T04:38:37.248Z,5.51
2022-12-25T04:41:04.561Z,5.62
2022-12-25T04:43:31.259Z,5.62
2022-12-25T04:45:59.724Z,5.68
2022-12-25T04:48:27.489Z,5.77
2022-12-25T04:50:54.094Z,5.84
2022-12-25T04:53:20.757Z,5.80
2022-12-25T04:55:50.290Z,5.79
2022-12-25T04:58:16.761Z,5.73
2022-12-25T05:00:43.311Z,5.72
2022-12-25T05:03:09.946Z,5.73
2022-12-25T05:05:42.509Z,5.75
2022-12-25T05:08:08.984Z,5.78
2022-12-25T05:10:35.621Z,5.84
2022-12-25T05:13:02.049Z,5.75
2022-12-25T05:15:28.604Z,5.75
2022-12-25T05:17:55.119Z,5.74
2022-12-25T05:20:21.572Z,5.83
2022-12-25T05:22:48.080Z,5.83
2022-12-25T05:25:14.595Z,5.88
2022-12-25T05:27:41.076Z,5.93
2022-12-25T05:30:08.542Z,5.96
2022-12-25T05:32:35.035Z,6.01
2022-12-25T05:35:01.521Z,5.96
2022-12-25T05:37:31.764Z,5.97
2022-12-25T05:39:59.165Z,6.01
2022-12-25T05:42:25.681Z,6.03
2022-12-25T05:44:52.139Z,6.13
2022-12-25T05:47:18.696Z,6.15
2022-12-25T05:49:45.221Z,6.19
2022-12-25T05:52:11.770Z,6.11
2022-12-25T05:54:38.338Z,6.06
2022-12-25T05:57:04.861Z,6.12
2022-12-25T05:59:32.459Z,6.17
2022-12-25T06:02:00.023Z,6.19
2022-12-25T06:04:26.919Z,6.20
2022-12-25T06:06:53.423Z,6.23
2022-12-25T06:09:22.937Z,6.36
2022-12-25T06:11:49.371Z,6.43
2022-12-25T06:14:16.249Z,6.45
2022-12-25T06:16:42.805Z,6.46
2022-12-25T06:19:09.412Z,6.50
2022-12-25T06:21:36.083Z,6.54
2022-12-25T06:24:02.888Z,6.58
2022-12-25T06:26:29.482Z,6.58
2022-12-25T06:28:55.968Z,6.60
2022-12-25T06:31:24.069Z,6.64
2022-12-25T06:33:50.758Z,6.68
2022-12-25T06:36:23.249Z,6.67
2022-12-25T06:38:50.600Z,6.69
2022-12-25T06:41:19.679Z,6.73
2022-12-25T06:43:57.260Z,6.69
2022-12-25T06:46:26.142Z,6.77
2022-12-25T06:48:53.335Z,6.82
2022-12-25T06:51:24.720Z,6.82
2022-12-25T06:53:52.382Z,6.88
2022-12-25T06:56:22.090Z,6.91
2022-12-25T06:58:54.592Z,7.01
2022-12-25T07:01:25.587Z,7.16
2022-12-25T07:03:55.546Z,7.11
2022-12-25T07:06:22.529Z,7.12
2022-12-25T07:08:51.973Z,7.09
2022-12-25T07:11:18.764Z,7.10
2022-12-25T07:13:45.285Z,7.08
2022-12-25T07:16:12.785Z,7.09
2022-12-25T07:18:40.486Z,7.11
2022-12-25T07:21:15.763Z,7.09
2022-12-25T07:23:43.732Z,7.13
2022-12-25T07:26:12.227Z,7.19
2022-12-25T07:28:40.010Z,7.24
2022-12-25T07:31:10.658Z,7.20
2022-12-25T07:33:37.271Z,7.12
2022-12-25T07:36:05.507Z,7.05
2022-12-25T07:38:32.784Z,7.14
2022-12-25T07:40:59.497Z,7.28
2022-12-25T07:43:26.512Z,7.36
2022-12-25T07:46:00.790Z,7.48
2022-12-25T07:48:28.275Z,7.54
2022-12-25T07:51:02.290Z,7.52
2022-12-25T07:53:28.880Z,7.57
2022-12-25T07:56:11.872Z,7.58
2022-12-25T07:58:39.125Z,7.58
2022-12-25T08:01:13.537Z,7.59
2022-12-25T08:03:40.266Z,7.55
2022-12-25T08:06:09.163Z,7.62
2022-12-25T08:08:36.546Z,7.65
2022-12-25T08:11:03.297Z,7.63
2022-12-25T08:13:34.029Z,7.65
2022-12-25T08:16:02.083Z,7.70
2022-12-25T08:18:30.602Z,7.81
2022-12-25T08:21:02.082Z,7.80
2022-12-25T08:23:28.614Z,7.80
2022-12-25T08:26:04.496Z,7.86
2022-12-25T08:28:33.568Z,7.87
2022-12-25T08:31:00.295Z,7.93
2022-12-25T08:33:26.931Z,8.00
2022-12-25T08:35:53.568Z,8.08
2022-12-25T08:38:20.065Z,8.07
2022-12-25T08:40:46.560Z,8.12
2022-12-25T08:43:13.052Z,8.29
2022-12-25T08:45:39.548Z,8.35
2022-12-25T08:48:05.986Z,8.47
2022-12-25T08:50:32.557Z,8.60
2022-12-25T08:52:59.031Z,8.72
2022-12-25T08:55:25.525Z,8.90
2022-12-25T08:57:54.013Z,9.00
2022-12-25T09:00:20.703Z,9.04
2022-12-25T09:02:47.311Z,9.00
2022-12-25T09:05:13.870Z,9.02
2022-12-25T09:07:40.453Z,9.06
2022-12-25T09:10:07.545Z,9.06
2022-12-25T09:12:34.072Z,9.08
2022-12-25T09:15:00.577Z,9.13
2022-12-25T09:17:27.098Z,9.12
2022-12-25T09:19:53.605Z,9.07
2022-12-25T09:22:20.122Z,9.03
2022-12-25T09:24:46.590Z,9.00
2022-12-25T09:27:13.116Z,8.99
2022-12-25T09:29:40.424Z,8.98
2022-12-25T09:32:07.346Z,8.94
2022-12-25T09:34:34.057Z,8.96
2022-12-25T09:37:00.744Z,9.03
2022-12-25T09:39:30.584Z,9.03
2022-12-25T09:42:04.369Z,9.02
2022-12-25T09:44:38.245Z,9.03
2022-12-25T09:47:12.891Z,9.04
2022-12-25T09:49:39.333Z,9.03
2022-12-25T09:52:12.546Z,8.99
2022-12-25T09:54:48.485Z,9.05
2022-12-25T09:57:15.587Z,9.20
2022-12-25T09:59:44.175Z,9.20
2022-12-25T10:02:29.468Z,9.26
2022-12-25T10:05:40.911Z,9.29
2022-12-25T10:08:24.954Z,9.26
2022-12-25T10:10:58.694Z,9.27
2022-12-25T10:14:05.812Z,9.28
2022-12-25T10:16:37.364Z,9.38
2022-12-25T10:19:26.833Z,9.43
2022-12-25T10:21:58.405Z,9.35
2022-12-25T10:24:36.791Z,9.30
2022-12-25T10:27:11.534Z,9.27
2022-12-25T10:29:39.668Z,9.35
2022-12-25T10:32:06.315Z,9.32
2022-12-25T10:34:33.068Z,9.29
2022-12-25T10:36:59.561Z,9.28
2022-12-25T10:39:26.663Z,9.32
2022-12-25T10:42:20.991Z,9.31
2022-12-25T10:44:59.514Z,9.32
2022-12-25T10:47:31.305Z,9.33
2022-12-25T10:49:59.177Z,9.40
2022-12-25T10:52:28.804Z,9.43
2022-12-25T10:54:56.248Z,9.51
2022-12-25T10:57:25.576Z,9.49
2022-12-25T10:59:56.800Z,9.47
2022-12-25T11:02:27.921Z,9.48
2022-12-25T11:05:07.854Z,9.52
2022-12-25T11:07:46.757Z,9.47
2022-12-25T11:10:23.099Z,9.47
2022-12-25T11:12:49.648Z,9.45
2022-12-25T11:15:34.744Z,9.50
2022-12-25T11:18:01.268Z,9.55
2022-12-25T11:20:27.959Z,9.54
2022-12-25T11:22:54.710Z,9.57
2022-12-25T11:25:24.121Z,9.60
2022-12-25T11:28:02.812Z,9.54
2022-12-25T11:30:32.432Z,9.51
2022-12-25T11:33:04.917Z,9.52
2022-12-25T11:35:45.932Z,9.50
2022-12-25T11:38:12.532Z,9.53
2022-12-25T11:40:47.655Z,9.64
2022-12-25T11:43:35.927Z,9.61
2022-12-25T11:46:37.704Z,9.65
2022-12-25T11:49:14.295Z,9.59
2022-12-25T11:51:44.936Z,9.53
2022-12-25T11:54:25.119Z,9.49
2022-12-25T11:56:52.782Z,9.53
2022-12-25T11:59:27.886Z,9.48
2022-12-25T12:02:13.384Z,9.47
2022-12-25T12:04:48.847Z,9.46
2022-12-25T12:07:31.395Z,9.54
2022-12-25T12:10:26.989Z,9.59
2022-12-25T12:13:17.992Z,9.54
2022-12-25T12:15:45.885Z,9.57
2022-12-25T12:18:25.948Z,9.62
2022-12-25T12:21:07.708Z,9.72
2022-12-25T12:23:51.763Z,9.68
2022-12-25T12:26:36.757Z,9.58
2022-12-25T12:29:05.809Z,9.47
2022-12-25T12:31:45.479Z,9.41
2022-12-25T12:34:28.096Z,9.39
2022-12-25T12:37:06.720Z,9.39
2022-12-25T12:39:40.522Z,9.36
2022-12-25T12:42:21.116Z,9.39
2022-12-25T12:44:49.705Z,9.33
2022-12-25T12:47:29.545Z,9.48
2022-12-25T12:50:00.416Z,9.44
2022-12-25T12:52:32.941Z,9.39
2022-12-25T12:55:07.170Z,9.30
2022-12-25T12:57:41.707Z,9.20
2022-12-25T13:00:19.752Z,9.20
2022-12-25T13:02:58.274Z,9.20
2022-12-25T13:05:56.047Z,9.17
2022-12-25T13:08:42.588Z,9.17
2022-12-25T13:11:21.192Z,9.16
2022-12-25T13:13:49.616Z,9.14
2022-12-25T13:16:31.022Z,9.10
2022-12-25T13:18:58.338Z,9.11
2022-12-25T13:21:28.099Z,9.13
2022-12-25T13:24:10.618Z,9.11
2022-12-25T13:26:38.899Z,9.12
2022-12-25T13:29:11.267Z,9.11
2022-12-25T13:31:41.079Z,9.14
2022-12-25T13:34:43.204Z,9.13
2022-12-25T13:37:15.605Z,9.12
2022-12-25T13:39:52.583Z,9.08
2022-12-25T13:42:25.663Z,9.07
2022-12-25T13:44:58.654Z,9.09
2022-12-25T13:47:31.903Z,9.09
2022-12-25T13:50:00.472Z,9.06
2022-12-25T13:52:35.567Z,9.06
2022-12-25T13:55:04.783Z,9.04
2022-12-25T13:57:36.405Z,9.01
2022-12-25T14:00:07.828Z,9.00
2022-12-25T14:02:38.433Z,8.97
2022-12-25T14:05:24.946Z,8.97
2022-12-25T14:07:53.509Z,8.93
2022-12-25T14:10:22.258Z,8.91
2022-12-25T14:12:51.143Z,8.88
2022-12-25T14:15:22.937Z,8.86
2022-12-25T14:17:51.514Z,8.86
2022-12-25T14:20:40.644Z,8.81
2022-12-25T14:23:07.740Z,8.80
2022-12-25T14:25:41.580Z,8.77
2022-12-25T14:28:17.748Z,8.76
2022-12-25T14:30:47.964Z,8.76
2022-12-25T14:33:25.334Z,8.74
2022-12-25T14:35:55.239Z,8.74
2022-12-25T14:38:27.346Z,8.71
2022-12-25T14:41:25.793Z,8.69
2022-12-25T14:43:54.727Z,8.66
2022-12-25T14:46:29.953Z,8.63
2022-12-25T14:49:22.039Z,8.62
2022-12-25T14:51:48.558Z,8.60
2022-12-25T14:54:23.304Z,8.59
2022-12-25T14:56:53.811Z,8.61
2022-12-25T14:59:27.177Z,8.62
2022-12-25T15:01:57.286Z,8.63
2022-12-25T15:04:24.965Z,8.65
2022-12-25T15:06:55.939Z,8.62
2022-12-25T15:09:22.743Z,8.65
2022-12-25T15:11:55.421Z,8.63
2022-12-25T15:14:23.392Z,8.60
2022-12-25T15:16:57.312Z,8.61
2022-12-25T15:19:31.752Z,8.57
2022-12-25T15:22:02.748Z,8.57
2022-12-25T15:24:29.464Z,8.59
2022-12-25T15:26:59.146Z,8.55
2022-12-25T15:29:59.610Z,8.53
2022-12-25T15:32:17.728Z,8.55
2022-12-25T15:34:47.014Z,8.64
2022-12-25T15:37:14.435Z,8.74
2022-12-25T15:39:41.019Z,8.81
2022-12-25T15:42:19.824Z,8.79
2022-12-25T15:44:46.519Z,8.90
2022-12-25T15:47:15.471Z,8.95
2022-12-25T15:49:42.218Z,9.05
2022-12-25T15:52:13.092Z,9.22
2022-12-25T15:54:39.618Z,9.36
2022-12-25T15:57:15.877Z,9.36
2022-12-25T15:59:42.317Z,9.38
2022-12-25T16:02:15.921Z,9.36
2022-12-25T16:04:42.577Z,9.37
2022-12-25T16:07:15.911Z,9.40
2022-12-25T16:09:42.692Z,9.52
2022-12-25T16:12:09.332Z,9.52
2022-12-25T16:14:36.417Z,9.53
2022-12-25T16:17:03.991Z,9.54
2022-12-25T16:19:31.109Z,9.66
2022-12-25T16:21:57.718Z,9.68
2022-12-25T16:24:24.867Z,9.74
2022-12-25T16:26:51.503Z,9.76
2022-12-25T16:29:17.996Z,9.84
2022-12-25T16:31:44.461Z,9.86
2022-12-25T16:34:11.029Z,9.88
2022-12-25T16:36:40.590Z,9.92
2022-12-25T16:39:07.181Z,9.95
2022-12-25T16:41:34.001Z,9.96
2022-12-25T16:44:09.260Z,9.99
2022-12-25T16:46:37.739Z,10.05
2022-12-25T16:49:04.381Z,10.16
2022-12-25T16:51:31.314Z,10.10
2022-12-25T16:53:57.841Z,10.09
2022-12-25T16:56:26.956Z,10.14
2022-12-25T16:58:54.079Z,10.20
2022-12-25T17:01:23.068Z,10.25
2022-12-25T17:03:50.460Z,10.24
2022-12-25T17:06:23.187Z,10.22
2022-12-25T17:08:51.861Z,10.21
2022-12-25T17:11:23.538Z,10.24
2022-12-25T17:13:50.384Z,10.25
2022-12-25T17:16:22.956Z,10.24
2022-12-25T17:19:04.153Z,10.21
2022-12-25T17:21:34.975Z,10.28
2022-12-25T17:24:04.006Z,10.38
2022-12-25T17:26:31.887Z,10.27
2022-12-25T17:28:58.801Z,10.19
2022-12-25T17:31:25.369Z,10.09
2022-12-25T17:33:51.972Z,10.06
2022-12-25T17:36:20.563Z,10.02
2022-12-25T17:38:47.652Z,9.94
2022-12-25T17:41:16.546Z,9.94
2022-12-25T17:43:45.622Z,9.92
2022-12-25T17:46:16.646Z,9.93
2022-12-25T17:48:43.811Z,9.96
2022-12-25T17:51:16.169Z,9.97
2022-12-25T17:53:45.402Z,9.96
2022-12-25T17:56:12.583Z,9.94
2022-12-25T17:58:39.444Z,9.95
2022-12-25T18:01:16.573Z,9.99
2022-12-25T18:03:44.888Z,10.01
2022-12-25T18:06:14.362Z,10.02
2022-12-25T18:08:42.450Z,10.03
2022-12-25T18:11:15.418Z,9.99
2022-12-25T18:13:45.035Z,10.06
2022-12-25T18:16:12.834Z,10.02
2022-12-25T18:18:40.593Z,9.99
2022-12-25T18:21:08.212Z,9.96
2022-12-25T18:23:35.832Z,9.95
2022-12-25T18:26:04.705Z,9.96
2022-12-25T18:28:31.581Z,9.99
2022-12-25T18:30:58.230Z,9.97
2022-12-25T18:33:24.910Z,9.95
2022-12-25T18:35:57.175Z,9.97
2022-12-25T18:38:23.704Z,9.94
2022-12-25T18:40:50.191Z,9.99
2022-12-25T18:43:16.715Z,10.04
2022-12-25T18:45:43.306Z,10.09
2022-12-25T18:48:10.629Z,10.19
2022-12-25T18:50:39.142Z,10.20
2022-12-25T18:53:07.294Z,10.17
2022-12-25T18:55:33.767Z,10.15
2022-12-25T18:58:00.281Z,10.17
2022-12-25T19:00:28.024Z,10.15
2022-12-25T19:02:59.327Z,10.14
2022-12-25T19:05:28.954Z,10.14
2022-12-25T19:07:55.419Z,10.21
2022-12-25T19:10:21.910Z,10.30
2022-12-25T19:12:48.458Z,10.29
2022-12-25T19:15:15.040Z,10.30
2022-12-25T19:17:41.595Z,10.36
2022-12-25T19:20:08.733Z,10.34
2022-12-25T19:22:35.225Z,10.32
2022-12-25T19:25:01.742Z,10.40
2022-12-25T19:27:28.488Z,10.44
2022-12-25T19:29:55.016Z,10.39
2022-12-25T19:32:21.678Z,10.36
2022-12-25T19:34:48.202Z,10.32
2022-12-25T19:37:15.144Z,10.30
2022-12-25T19:39:46.515Z,10.31
2022-12-25T19:42:18.807Z,10.33
2022-12-25T19:44:45.341Z,10.32
2022-12-25T19:47:11.924Z,10.37
2022-12-25T19:49:39.895Z,10.35
2022-12-25T19:52:07.306Z,10.33
2022-12-25T19:54:33.833Z,10.32
2022-12-25T19:57:00.320Z,10.30
2022-12-25T19:59:26.805Z,10.32
2022-12-25T20:01:56.311Z,10.39
2022-12-25T20:04:22.972Z,10.41
2022-12-25T20:06:49.497Z,10.46
2022-12-25T20:09:21.767Z,10.44
2022-12-25T20:11:48.705Z,10.49
2022-12-25T20:14:16.431Z,10.50
2022-12-25T20:16:43.932Z,10.57
2022-12-25T20:19:13.042Z,10.54
2022-12-25T20:21:40.169Z,10.49
2022-12-25T20:24:10.147Z,10.51
2022-12-25T20:26:37.734Z,10.50
2022-12-25T20:29:05.107Z,10.54
2022-12-25T20:31:33.963Z,10.57
2022-12-25T20:34:05.809Z,10.58
2022-12-25T20:36:36.784Z,10.60
2022-12-25T20:39:05.057Z,10.53
2022-12-25T20:41:32.131Z,10.57
2022-12-25T20:43:58.734Z,10.58
2022-12-25T20:46:26.572Z,10.55
2022-12-25T20:48:53.465Z,10.56
2022-12-25T20:51:23.039Z,10.60
2022-12-25T20:53:49.846Z,10.60
2022-12-25T20:56:18.820Z,10.62
2022-12-25T20:58:45.330Z,10.67
2022-12-25T21:01:14.415Z,10.70
2022-12-25T21:03:41.343Z,10.69
2022-12-25T21:06:08.912Z,10.69
2022-12-25T21:08:36.432Z,10.69
2022-12-25T21:11:04.113Z,10.73
2022-12-25T21:13:36.549Z,10.74
2022-12-25T21:16:08.523Z,10.76
2022-12-25T21:18:35.184Z,10.76
2022-12-25T21:21:05.616Z,10.73
2022-12-25T21:23:36.909Z,10.70
2022-12-25T21:26:15.915Z,10.71
2022-12-25T21:28:42.530Z,10.76
2022-12-25T21:31:10.215Z,10.77
2022-12-25T21:33:52.218Z,10.74
2022-12-25T21:36:20.426Z,10.73
2022-12-25T21:38:47.265Z,10.70
2022-12-25T21:41:15.488Z,10.71
2022-12-25T21:43:42.906Z,10.68
2022-12-25T21:46:12.570Z,10.73
2022-12-25T21:48:42.130Z,10.66
2022-12-25T21:51:30.030Z,10.69
2022-12-25T21:53:56.849Z,10.67
2022-12-25T21:56:23.324Z,10.68
2022-12-25T21:58:49.833Z,10.64
2022-12-25T22:01:16.957Z,10.62
2022-12-25T22:03:44.631Z,10.56
2022-12-25T22:06:30.884Z,10.53
2022-12-25T22:08:57.494Z,10.45
2022-12-25T22:11:44.137Z,10.44
2022-12-25T22:14:51.936Z,10.46
2022-12-25T22:17:41.601Z,10.48
2022-12-25T22:20:10.772Z,10.50
2022-12-25T22:22:38.024Z,10.52
2022-12-25T22:25:06.321Z,10.57
2022-12-25T22:27:36.267Z,10.61
2022-12-25T22:30:03.089Z,10.64
2022-12-25T22:32:29.674Z,10.62
2022-12-25T22:34:56.325Z,10.62
2022-12-25T22:37:22.884Z,10.64
2022-12-25T22:39:49.391Z,10.68
2022-12-25T22:42:16.532Z,10.66
2022-12-25T22:44:43.351Z,10.70
2022-12-25T22:47:09.834Z,10.71
2022-12-25T22:49:36.348Z,10.71
2022-12-25T22:52:03.405Z,10.72
2022-12-25T22:54:31.725Z,10.76
2022-12-25T22:56:58.526Z,10.75
2022-12-25T22:59:25.506Z,10.77
2022-12-25T23:01:56.208Z,10.77
2022-12-25T23:04:23.918Z,10.79
2022-12-25T23:06:50.942Z,10.79
2022-12-25T23:09:24.500Z,10.76
2022-12-25T23:11:51.457Z,10.74
2022-12-25T23:14:36.792Z,10.81
2022-12-25T23:17:03.803Z,10.80
2022-12-25T23:19:48.971Z,10.79
2022-12-25T23:22:34.391Z,10.77
2022-12-25T23:25:19.153Z,10.67
2022-12-25T23:27:46.038Z,10.62
2022-12-25T23:30:16.847Z,10.62
2022-12-25T23:32:44.342Z,10.63
2022-12-25T23:35:14.360Z,10.64
2022-12-25T23:37:40.823Z,10.60
2022-12-25T23:40:08.284Z,10.56
2022-12-25T23:42:34.762Z,10.56
2022-12-25T23:45:01.256Z,10.57
2022-12-25T23:47:27.796Z,10.54
2022-12-25T23:49:54.277Z,10.49
2022-12-25T23:52:20.760Z,10.49
2022-12-25T23:54:47.200Z,10.48
2022-12-25T23:57:13.674Z,10.45
2022-12-25T23:59:40.149Z,10.48
